Time;durP1;ratioP1;P1;durP2;ratioP2;P2;SDS_P1;SDS_P2;PMS_P1;PMS_P2;Temp;Humidity;BMP_temperature;BMP_pressure;BME280_temperature;BME280_humidity;BME280_pressure;Samples;Min_cycle;Max_cycle;Signal;HPM_P1;HPM_P2
2022/01/22 00:02:08;;;;;;;11.93;5.37;;;1.70;99.90;;;;;;5032444;28;20198;-89
2022/01/22 00:04:35;;;;;;;11.10;5.97;;;1.80;99.90;;;;;;5035055;28;20212;-89
2022/01/22 00:07:02;;;;;;;10.80;5.47;;;1.70;99.90;;;;;;5034839;28;20252;-89
2022/01/22 00:09:38;;;;;;;14.53;7.03;;;1.80;99.90;;;;;;5029239;28;20181;-89
2022/01/22 00:12:07;;;;;;;12.97;5.40;;;1.70;99.90;;;;;;5036152;28;20197;-89
2022/01/22 00:14:34;;;;;;;16.37;8.37;;;1.80;99.90;;;;;;5036238;28;20184;-88
2022/01/22 00:17:01;;;;;;;19.00;8.47;;;1.70;99.90;;;;;;5036200;28;20185;-89
2022/01/22 00:19:27;;;;;;;17.60;7.37;;;1.70;99.90;;;;;;5035615;28;20181;-89
2022/01/22 00:21:54;;;;;;;10.03;5.17;;;1.80;99.90;;;;;;5036397;28;20207;-89
2022/01/22 00:24:20;;;;;;;12.30;5.33;;;1.80;99.90;;;;;;5036255;28;20193;-89
2022/01/22 00:26:47;;;;;;;17.10;7.50;;;1.80;99.90;;;;;;5035937;28;20197;-89
2022/01/22 00:29:16;;;;;;;15.87;6.77;;;1.80;99.90;;;;;;5035636;28;20196;-89
2022/01/22 00:31:41;;;;;;;15.97;7.27;;;1.80;99.90;;;;;;5035906;28;20198;-89
2022/01/22 00:34:08;;;;;;;15.20;7.53;;;1.70;99.90;;;;;;5021162;28;20220;-89
2022/01/22 00:36:35;;;;;;;17.00;6.47;;;1.70;99.90;;;;;;5016158;28;20669;-89
2022/01/22 00:39:01;;;;;;;21.20;8.33;;;1.80;99.90;;;;;;5032416;28;20174;-89
2022/01/22 00:41:27;;;;;;;15.10;6.10;;;1.70;99.90;;;;;;5015827;28;20236;-89
2022/01/22 00:43:55;;;;;;;18.50;6.53;;;1.80;99.90;;;;;;5016337;28;20193;-89
2022/01/22 00:46:21;;;;;;;12.77;5.90;;;1.80;99.90;;;;;;5015722;28;20181;-89
2022/01/22 00:48:47;;;;;;;10.73;4.53;;;1.80;99.90;;;;;;5015304;28;20190;-89
2022/01/22 00:51:13;;;;;;;12.57;4.77;;;1.80;99.90;;;;;;5015769;28;20206;-89
2022/01/22 00:53:39;;;;;;;7.63;4.73;;;1.80;99.90;;;;;;5015561;28;20223;-89
2022/01/22 00:56:05;;;;;;;11.47;5.20;;;1.80;99.90;;;;;;5015862;28;20212;-89
2022/01/22 00:58:31;;;;;;;7.83;4.77;;;1.80;99.90;;;;;;5014986;28;20221;-89
2022/01/22 01:00:57;;;;;;;8.20;4.87;;;1.80;99.90;;;;;;5015568;28;20210;-88
2022/01/22 01:03:23;;;;;;;8.93;4.57;;;1.80;99.90;;;;;;5023762;28;20197;-89
2022/01/22 01:05:49;;;;;;;11.17;4.80;;;1.80;99.90;;;;;;5051909;28;20192;-89
2022/01/22 01:08:15;;;;;;;9.53;4.33;;;1.80;99.90;;;;;;5052081;28;20189;-89
2022/01/22 01:10:44;;;;;;;8.40;4.23;;;1.80;99.90;;;;;;5051669;28;20243;-89
2022/01/22 01:13:13;;;;;;;9.13;4.20;;;1.80;99.90;;;;;;5051721;28;20220;-89
2022/01/22 01:34:41;;;;;;;5.93;4.20;;;1.80;99.90;;;;;;5032290;28;20198;-89
2022/01/22 01:37:11;;;;;;;7.23;3.37;;;1.80;99.90;;;;;;5031586;28;20182;-89
2022/01/22 01:39:39;;;;;;;8.07;4.10;;;1.80;99.90;;;;;;5031211;28;20182;-88
2022/01/22 01:42:09;;;;;;;5.70;3.60;;;1.80;99.90;;;;;;5031074;28;20202;-89
2022/01/22 01:44:38;;;;;;;6.00;3.43;;;1.90;99.90;;;;;;5031508;28;20188;-88
2022/01/22 01:47:16;;;;;;;10.20;3.60;;;1.80;99.90;;;;;;5031408;28;20186;-89
2022/01/22 01:49:42;;;;;;;7.90;3.73;;;1.90;99.90;;;;;;5031083;28;20186;-89
2022/01/22 01:52:27;;;;;;;5.47;3.40;;;1.90;99.90;;;;;;5016316;28;20272;-89
2022/01/22 01:55:09;;;;;;;6.27;3.33;;;1.90;99.90;;;;;;5031483;28;20182;-89
2022/01/22 01:57:42;;;;;;;5.73;3.37;;;1.90;99.90;;;;;;5030394;28;20178;-89
2022/01/22 02:00:21;;;;;;;5.97;3.43;;;1.90;99.90;;;;;;5031242;28;20178;-89
2022/01/22 02:02:54;;;;;;;9.63;3.53;;;1.90;99.90;;;;;;5035107;28;20201;-89
2022/01/22 02:05:23;;;;;;;8.83;3.87;;;1.90;99.90;;;;;;5051195;28;20213;-89
2022/01/22 02:07:54;;;;;;;8.70;4.30;;;1.80;99.90;;;;;;5050180;28;20178;-89
2022/01/22 02:10:26;;;;;;;7.33;3.60;;;1.90;99.90;;;;;;5049685;28;20732;-88
2022/01/22 02:23:49;;;;;;;7.20;2.93;;;1.90;99.90;;;;;;5050743;28;20201;-89
2022/01/22 02:26:16;;;;;;;9.30;3.50;;;1.90;99.90;;;;;;5050274;28;20264;-89
2022/01/22 02:28:50;;;;;;;8.03;3.70;;;1.90;99.90;;;;;;5049900;28;20221;-89
2022/01/22 02:39:18;;;;;;;9.07;3.73;;;1.90;99.90;;;;;;5046649;28;20179;-89
2022/01/22 02:41:51;;;;;;;8.13;3.43;;;1.90;99.90;;;;;;5014045;28;20201;-89
2022/01/22 02:44:42;;;;;;;5.73;3.20;;;1.90;99.90;;;;;;5030313;28;20183;-89
2022/01/22 02:47:10;;;;;;;6.07;3.30;;;2.00;99.90;;;;;;5030074;28;20179;-89
2022/01/22 02:49:38;;;;;;;5.97;3.30;;;2.00;99.90;;;;;;5030227;28;20273;-89
2022/01/22 02:52:09;;;;;;;4.53;2.90;;;2.00;99.90;;;;;;5030229;28;20290;-89
2022/01/22 02:54:38;;;;;;;5.33;3.30;;;2.00;99.90;;;;;;5030301;28;20186;-89
2022/01/22 02:57:06;;;;;;;4.80;3.13;;;2.00;99.90;;;;;;5030114;28;20205;-89
2022/01/22 02:59:32;;;;;;;6.13;3.70;;;2.00;99.90;;;;;;5029891;28;20265;-89
2022/01/22 03:02:00;;;;;;;6.23;3.80;;;2.00;99.90;;;;;;5013411;28;20289;-89
2022/01/22 03:04:25;;;;;;;6.77;3.20;;;2.00;99.90;;;;;;5047413;28;20217;-89
2022/01/22 03:06:52;;;;;;;5.27;3.20;;;2.00;99.90;;;;;;5034112;28;20231;-89
2022/01/22 03:09:25;;;;;;;6.57;3.30;;;2.00;99.90;;;;;;5034243;28;20182;-89
2022/01/22 03:12:48;;;;;;;5.57;3.10;;;2.00;99.90;;;;;;5034537;28;20237;-89
2022/01/22 03:20:05;;;;;;;5.50;4.00;;;2.00;99.90;;;;;;5049966;28;20240;-89
2022/01/22 03:22:54;;;;;;;9.83;4.20;;;2.00;99.90;;;;;;5033503;28;20206;-89
2022/01/22 03:28:04;;;;;;;6.80;4.20;;;2.00;99.90;;;;;;5049533;28;20192;-89
2022/01/22 03:30:30;;;;;;;10.03;4.57;;;2.00;99.90;;;;;;5033286;28;20170;-89
2022/01/22 03:32:57;;;;;;;8.93;4.57;;;2.00;99.90;;;;;;5027986;28;20210;-89
2022/01/22 03:35:27;;;;;;;9.60;4.17;;;2.00;99.90;;;;;;5013424;28;20178;-89
2022/01/22 03:37:56;;;;;;;7.03;4.33;;;2.00;99.90;;;;;;5013333;28;20182;-89
2022/01/22 03:40:25;;;;;;;7.70;4.17;;;2.00;99.90;;;;;;5013326;28;20186;-89
2022/01/22 03:42:53;;;;;;;3.57;3.20;;;2.00;99.90;;;;;;5013255;28;20198;-89
2022/01/22 03:45:22;;;;;;;6.07;3.17;;;2.00;99.90;;;;;;5013183;28;20183;-89
2022/01/22 03:47:49;;;;;;;4.97;3.27;;;2.00;99.90;;;;;;5012747;28;20179;-89
2022/01/22 03:50:18;;;;;;;4.13;3.20;;;2.00;99.90;;;;;;5013031;28;20179;-88
2022/01/22 03:52:44;;;;;;;5.83;3.70;;;2.10;99.90;;;;;;5013025;28;20241;-89
2022/01/22 03:55:20;;;;;;;6.20;3.50;;;2.00;99.90;;;;;;5013253;28;20175;-89
2022/01/22 03:58:04;;;;;;;4.77;2.97;;;2.10;99.90;;;;;;5028722;28;20206;-89
2022/01/22 04:00:33;;;;;;;4.47;2.97;;;2.10;99.90;;;;;;5013173;28;20230;-89
2022/01/22 04:05:25;;;;;;;3.23;2.60;;;2.10;99.90;;;;;;5046016;28;20190;-89
2022/01/22 04:10:23;;;;;;;3.77;2.50;;;2.10;99.90;;;;;;5029111;28;20179;-89
2022/01/22 04:13:02;;;;;;;3.40;2.80;;;2.10;99.90;;;;;;5012342;28;20293;-88
2022/01/22 04:15:31;;;;;;;4.97;3.07;;;2.10;99.90;;;;;;5012865;28;20178;-89
2022/01/22 04:28:36;;;;;;;6.83;3.83;;;2.00;99.90;;;;;;5028789;28;20226;-89
2022/01/22 04:31:02;;;;;;;5.70;3.70;;;2.10;99.90;;;;;;5012562;28;20186;-89
2022/01/22 04:33:28;;;;;;;6.63;3.77;;;2.00;99.90;;;;;;5024051;28;20210;-89
2022/01/22 04:35:54;;;;;;;7.47;4.00;;;2.00;99.90;;;;;;5035111;28;20185;-89
2022/01/22 04:38:20;;;;;;;4.90;3.60;;;2.10;99.90;;;;;;5035826;28;20230;-89
2022/01/22 04:40:46;;;;;;;6.40;4.17;;;2.10;99.90;;;;;;5035949;28;20223;-89
2022/01/22 04:43:12;;;;;;;7.27;4.23;;;2.10;99.90;;;;;;5035701;28;20300;-89
2022/01/22 04:46:07;;;;;;;6.50;3.93;;;2.00;99.90;;;;;;5035809;28;20185;-89
2022/01/22 04:56:54;;;;;;;7.70;4.50;;;2.00;99.90;;;;;;5052122;28;20181;-89
2022/01/22 04:59:20;;;;;;;6.87;4.53;;;2.00;99.90;;;;;;5035604;28;20174;-89
2022/01/22 05:01:47;;;;;;;6.10;4.67;;;2.00;99.90;;;;;;5043986;28;20233;-89
2022/01/22 05:04:21;;;;;;;7.43;4.70;;;2.00;99.90;;;;;;5036722;28;20192;-89
2022/01/22 05:07:09;;;;;;;7.17;4.90;;;2.00;99.90;;;;;;5051505;28;20184;-89
2022/01/22 05:10:09;;;;;;;7.07;4.67;;;1.90;99.90;;;;;;5038406;28;20173;-89
2022/01/22 05:12:36;;;;;;;6.37;4.30;;;1.90;99.90;;;;;;5035196;28;20297;-89
2022/01/22 05:15:03;;;;;;;7.27;4.50;;;1.90;99.90;;;;;;5035382;28;20203;-89
2022/01/22 05:17:31;;;;;;;8.67;4.80;;;1.90;99.90;;;;;;5035101;28;20174;-89
2022/01/22 05:20:07;;;;;;;7.00;4.47;;;1.90;99.90;;;;;;5035307;28;20272;-89
2022/01/22 05:22:49;;;;;;;6.57;4.87;;;2.00;99.90;;;;;;5035313;28;20215;-89
2022/01/22 05:25:25;;;;;;;9.30;4.60;;;2.00;99.90;;;;;;5035211;28;20178;-89
2022/01/22 05:31:21;;;;;;;7.37;5.13;;;2.00;99.90;;;;;;5041598;28;20560;-90
2022/01/22 05:37:05;;;;;;;10.97;5.30;;;2.00;99.90;;;;;;5059442;28;20203;-89
2022/01/22 05:39:34;;;;;;;7.50;5.17;;;1.90;99.90;;;;;;5049456;28;20209;-89
2022/01/22 05:42:04;;;;;;;10.23;6.23;;;2.00;99.90;;;;;;5048851;28;20205;-89
2022/01/22 05:44:35;;;;;;;11.63;7.63;;;1.90;99.90;;;;;;5050252;28;20209;-89
2022/01/22 05:47:05;;;;;;;11.60;7.60;;;2.00;99.90;;;;;;5050499;28;20174;-89
2022/01/22 05:49:38;;;;;;;11.10;7.17;;;2.00;99.90;;;;;;5053457;28;20264;-85
2022/01/22 05:52:07;;;;;;;12.83;8.07;;;2.00;99.90;;;;;;5053761;28;20206;-89
2022/01/22 05:54:55;;;;;;;11.37;7.57;;;2.00;99.90;;;;;;5049203;28;20202;-89
2022/01/22 06:00:09;;;;;;;12.17;7.07;;;2.00;99.90;;;;;;5049947;28;20183;-89
2022/01/22 06:02:47;;;;;;;11.40;7.20;;;2.00;99.90;;;;;;5037300;28;20262;-89
2022/01/22 06:05:18;;;;;;;14.60;7.37;;;2.00;99.90;;;;;;5037087;28;20186;-89
2022/01/22 06:07:44;;;;;;;12.20;7.40;;;2.00;99.90;;;;;;5036440;28;20178;-90
2022/01/22 06:10:17;;;;;;;11.67;7.27;;;2.00;99.90;;;;;;5026394;28;20178;-89
2022/01/22 06:15:22;;;;;;;12.53;7.90;;;2.00;99.90;;;;;;5049673;28;20202;-89
2022/01/22 06:18:08;;;;;;;15.10;7.73;;;2.10;99.90;;;;;;5026166;28;20236;-86
2022/01/22 06:20:35;;;;;;;12.83;8.13;;;2.10;99.90;;;;;;5033695;28;20258;-85
2022/01/22 06:23:03;;;;;;;12.43;8.17;;;2.10;99.90;;;;;;5031286;28;20221;-85
2022/01/22 06:25:29;;;;;;;16.37;8.07;;;2.10;99.90;;;;;;5031339;28;20179;-85
2022/01/22 06:27:56;;;;;;;13.73;8.27;;;2.10;99.90;;;;;;5031439;28;20202;-88
2022/01/22 06:30:39;;;;;;;15.23;8.53;;;2.10;99.90;;;;;;5035533;28;20272;-88
2022/01/22 06:33:05;;;;;;;14.10;8.57;;;2.10;99.90;;;;;;5033017;28;20206;-82
2022/01/22 06:35:33;;;;;;;16.27;9.47;;;2.10;99.90;;;;;;5017271;28;20179;-89
2022/01/22 06:38:08;;;;;;;15.10;8.53;;;2.10;99.90;;;;;;5029143;28;20193;-89
2022/01/22 06:43:56;;;;;;;17.10;9.27;;;2.10;99.90;;;;;;5030507;28;20220;-89
2022/01/22 06:46:35;;;;;;;15.13;10.03;;;2.10;99.90;;;;;;5028555;28;20190;-89
2022/01/22 06:49:22;;;;;;;15.63;10.03;;;2.10;99.90;;;;;;5029498;28;20209;-89
2022/01/22 06:52:08;;;;;;;19.07;11.43;;;2.10;99.90;;;;;;5016757;28;20213;-89
2022/01/22 06:54:34;;;;;;;18.53;13.03;;;2.10;99.90;;;;;;5013425;28;20230;-89
2022/01/22 06:57:00;;;;;;;17.03;11.47;;;2.10;99.90;;;;;;5013411;28;20175;-89
2022/01/22 06:59:29;;;;;;;14.77;9.20;;;2.10;99.90;;;;;;5013555;28;20192;-88
2022/01/22 07:01:56;;;;;;;13.73;9.30;;;2.10;99.90;;;;;;5030003;28;20207;-89
2022/01/22 07:04:25;;;;;;;21.13;10.30;;;2.10;99.90;;;;;;5033657;28;20198;-89
2022/01/22 07:07:04;;;;;;;18.50;10.67;;;2.10;99.90;;;;;;5034843;28;20180;-89
2022/01/22 07:09:31;;;;;;;18.17;11.83;;;2.10;99.90;;;;;;5033046;28;20209;-89
2022/01/22 07:11:57;;;;;;;19.10;11.90;;;2.00;99.90;;;;;;5032912;28;20209;-89
2022/01/22 07:14:25;;;;;;;22.77;12.63;;;2.00;99.90;;;;;;5033054;28;20223;-89
2022/01/22 07:16:53;;;;;;;21.43;12.73;;;2.00;99.90;;;;;;5033532;28;20212;-89
2022/01/22 07:19:42;;;;;;;42.37;23.43;;;2.00;99.90;;;;;;5049704;28;20185;-89
2022/01/22 07:25:09;;;;;;;30.13;15.10;;;2.10;99.90;;;;;;5050321;28;20177;-89
2022/01/22 07:27:35;;;;;;;21.83;12.30;;;2.10;99.90;;;;;;5033073;28;20182;-89
2022/01/22 07:30:02;;;;;;;21.13;11.43;;;2.10;99.90;;;;;;5032930;28;20188;-89
2022/01/22 07:32:36;;;;;;;21.57;10.93;;;2.10;99.90;;;;;;5032921;28;20209;-89
2022/01/22 07:35:04;;;;;;;18.57;11.73;;;2.10;99.90;;;;;;5032871;28;20195;-89
2022/01/22 07:37:30;;;;;;;23.37;13.17;;;2.10;99.90;;;;;;5032721;28;20166;-89
2022/01/22 07:40:07;;;;;;;19.37;12.20;;;2.10;99.90;;;;;;5034015;28;20650;-89
2022/01/22 07:42:57;;;;;;;20.00;11.50;;;2.20;99.90;;;;;;5044063;28;20296;-89
2022/01/22 07:45:41;;;;;;;22.97;11.50;;;2.20;99.90;;;;;;5049728;28;20197;-89
2022/01/22 07:48:14;;;;;;;17.23;10.90;;;2.20;99.90;;;;;;5033923;28;20186;-89
2022/01/22 07:50:59;;;;;;;19.33;11.00;;;2.20;99.90;;;;;;5049542;28;20188;-89
2022/01/22 07:53:25;;;;;;;18.90;12.00;;;2.20;99.90;;;;;;5032761;28;20215;-89
2022/01/22 07:55:53;;;;;;;18.80;11.57;;;2.30;99.90;;;;;;5032883;28;20189;-90
2022/01/22 07:58:19;;;;;;;19.70;11.23;;;2.30;99.90;;;;;;5032642;28;20174;-89
2022/01/22 08:00:45;;;;;;;22.87;11.13;;;2.30;99.90;;;;;;5032685;28;20181;-89
2022/01/22 08:03:11;;;;;;;22.47;11.23;;;2.20;99.90;;;;;;5029131;28;20207;-89
2022/01/22 08:05:57;;;;;;;19.87;10.93;;;2.20;99.90;;;;;;5018936;28;20186;-89
2022/01/22 08:08:42;;;;;;;22.63;12.30;;;2.20;99.90;;;;;;5032467;28;20237;-89
2022/01/22 08:11:26;;;;;;;20.53;11.43;;;2.30;99.90;;;;;;5033290;28;20208;-89
2022/01/22 08:13:53;;;;;;;25.20;12.87;;;2.30;99.90;;;;;;5016732;28;20214;-89
2022/01/22 08:16:19;;;;;;;20.47;11.50;;;2.30;99.90;;;;;;5016070;28;20178;-89
2022/01/22 08:18:45;;;;;;;22.03;11.70;;;2.30;99.90;;;;;;5015841;28;20178;-89
2022/01/22 08:21:11;;;;;;;20.20;12.60;;;2.40;99.90;;;;;;5016487;28;20246;-89
2022/01/22 08:23:55;;;;;;;19.77;11.60;;;2.40;99.90;;;;;;5033361;28;20209;-89
2022/01/22 08:26:53;;;;;;;19.20;11.13;;;2.40;99.90;;;;;;5031709;28;20193;-89
2022/01/22 08:29:23;;;;;;;23.77;11.30;;;2.40;99.90;;;;;;5016762;28;20197;-89
2022/01/22 08:32:04;;;;;;;23.33;11.00;;;2.50;99.90;;;;;;5016220;28;20199;-89
2022/01/22 08:37:16;;;;;;;19.90;11.03;;;2.50;99.90;;;;;;5032319;28;20182;-89
2022/01/22 08:39:43;;;;;;;19.73;10.97;;;2.50;99.90;;;;;;5048892;28;20247;-89
2022/01/22 08:42:10;;;;;;;19.37;11.23;;;2.60;99.90;;;;;;5049208;28;20205;-89
2022/01/22 08:44:36;;;;;;;18.67;11.37;;;2.60;99.90;;;;;;5032437;28;20663;-89
2022/01/22 08:47:05;;;;;;;24.77;11.50;;;2.60;99.90;;;;;;5048491;28;20195;-89
2022/01/22 08:49:34;;;;;;;20.30;10.17;;;2.70;99.90;;;;;;5048851;28;20273;-89
2022/01/22 08:52:12;;;;;;;23.83;12.13;;;2.70;99.90;;;;;;5047521;28;20210;-89
2022/01/22 08:54:38;;;;;;;21.60;11.73;;;2.70;99.90;;;;;;5048972;28;20210;-89
2022/01/22 08:57:05;;;;;;;18.20;11.17;;;2.70;99.90;;;;;;5048830;28;20189;-89
2022/01/22 08:59:35;;;;;;;25.97;12.13;;;2.80;99.90;;;;;;5048200;28;20270;-89
2022/01/22 09:02:05;;;;;;;27.03;12.50;;;2.80;99.90;;;;;;5048231;28;20277;-89
2022/01/22 09:04:48;;;;;;;18.63;12.00;;;2.80;99.90;;;;;;5032574;28;20190;-89
2022/01/22 09:07:14;;;;;;;23.53;12.17;;;2.90;99.90;;;;;;5032483;28;20179;-89
2022/01/22 09:10:06;;;;;;;21.67;11.73;;;2.90;99.90;;;;;;5020122;28;20195;-89
2022/01/22 09:13:01;;;;;;;16.43;10.97;;;3.00;99.90;;;;;;5031868;28;20305;-89
2022/01/22 09:15:34;;;;;;;22.20;11.30;;;3.00;99.90;;;;;;5016754;28;20182;-89
2022/01/22 09:18:03;;;;;;;19.97;10.90;;;3.00;99.90;;;;;;5015219;28;20179;-89
2022/01/22 09:20:42;;;;;;;19.10;11.23;;;3.00;99.90;;;;;;5015687;28;20261;-90
2022/01/22 09:23:12;;;;;;;19.10;11.07;;;3.00;99.90;;;;;;5015430;28;20202;-89
2022/01/22 09:25:39;;;;;;;17.67;10.80;;;3.00;99.90;;;;;;5015531;28;20179;-89
2022/01/22 09:28:07;;;;;;;19.37;10.77;;;3.10;99.90;;;;;;5015067;28;20190;-90
2022/01/22 09:30:35;;;;;;;18.00;9.97;;;3.10;99.90;;;;;;5015542;28;20178;-89
2022/01/22 09:33:01;;;;;;;17.77;10.73;;;3.10;99.90;;;;;;5020430;28;20213;-89
2022/01/22 09:35:56;;;;;;;18.53;10.37;;;3.10;99.90;;;;;;5032436;28;20175;-89
2022/01/22 09:38:41;;;;;;;19.53;10.93;;;3.10;99.90;;;;;;5038378;28;20295;-89
2022/01/22 09:41:20;;;;;;;19.37;10.93;;;3.10;99.90;;;;;;5051821;28;20201;-89
2022/01/22 09:44:10;;;;;;;20.77;11.37;;;3.10;99.90;;;;;;5048236;28;20190;-89
2022/01/22 09:47:00;;;;;;;18.10;11.00;;;3.10;99.90;;;;;;5038560;28;20192;-89
2022/01/22 09:49:52;;;;;;;21.87;13.63;;;3.20;99.90;;;;;;5038658;28;20190;-89
2022/01/22 09:52:40;;;;;;;20.43;13.27;;;3.20;99.90;;;;;;5038824;28;20206;-89
2022/01/22 09:55:23;;;;;;;20.60;13.67;;;3.20;99.90;;;;;;5038388;28;20185;-89
2022/01/22 09:57:50;;;;;;;21.20;12.57;;;3.30;99.90;;;;;;5052560;28;20186;-89
2022/01/22 10:00:37;;;;;;;17.50;11.70;;;3.30;99.90;;;;;;5039053;28;20185;-89
2022/01/22 10:03:19;;;;;;;21.77;11.83;;;3.40;99.90;;;;;;5036845;28;20292;-89
2022/01/22 10:06:14;;;;;;;17.40;12.30;;;3.40;99.90;;;;;;5038355;28;20178;-89
2022/01/22 10:08:56;;;;;;;20.00;12.13;;;3.50;99.90;;;;;;5035813;28;20238;-89
2022/01/22 10:11:45;;;;;;;23.20;12.50;;;3.50;99.90;;;;;;5032341;28;20206;-89
2022/01/22 10:14:14;;;;;;;18.90;12.03;;;3.60;99.90;;;;;;5051202;28;20697;-89
2022/01/22 10:16:40;;;;;;;19.17;11.60;;;3.70;99.90;;;;;;5034298;28;20181;-89
2022/01/22 10:19:15;;;;;;;20.00;11.70;;;3.80;99.90;;;;;;5034131;28;20273;-89
2022/01/22 10:21:48;;;;;;;19.57;11.97;;;3.80;99.90;;;;;;5033863;28;20208;-89
2022/01/22 10:24:36;;;;;;;17.23;11.47;;;3.80;99.90;;;;;;5034161;28;20205;-89
2022/01/22 10:29:56;;;;;;;22.33;12.27;;;4.00;99.90;;;;;;5049366;28;20185;-89
2022/01/22 10:32:40;;;;;;;19.63;12.67;;;4.00;99.90;;;;;;5034017;28;20312;-89
2022/01/22 10:35:27;;;;;;;19.67;11.63;;;4.10;99.90;;;;;;5050901;28;20242;-89
2022/01/22 10:38:22;;;;;;;21.33;13.90;;;4.10;99.90;;;;;;5019006;28;20187;-89
2022/01/22 10:40:54;;;;;;;22.77;12.97;;;4.10;99.90;;;;;;5034058;28;20270;-88
2022/01/22 10:43:34;;;;;;;16.00;11.30;;;4.10;99.90;;;;;;5033731;28;20190;-90
2022/01/22 10:49:07;;;;;;;21.07;11.40;;;4.10;99.90;;;;;;5049850;28;20178;-89
2022/01/22 10:51:48;;;;;;;18.30;11.13;;;4.10;99.90;;;;;;5033626;28;20202;-89
2022/01/22 10:54:15;;;;;;;16.47;10.97;;;4.00;99.90;;;;;;5033523;28;20213;-90
2022/01/22 10:56:42;;;;;;;15.70;11.00;;;4.10;99.90;;;;;;5033426;28;20179;-89
2022/01/22 10:59:19;;;;;;;19.30;11.97;;;4.10;99.90;;;;;;5033201;28;20193;-89
2022/01/22 11:01:59;;;;;;;15.70;9.80;;;4.10;99.90;;;;;;5033511;28;20296;-89
2022/01/22 11:04:27;;;;;;;15.80;10.30;;;4.10;99.90;;;;;;5033227;28;20196;-89
2022/01/22 11:06:55;;;;;;;15.43;10.63;;;4.20;99.90;;;;;;5033103;28;20182;-89
2022/01/22 11:09:23;;;;;;;16.03;10.27;;;4.20;99.90;;;;;;5032680;28;20186;-89
2022/01/22 11:11:50;;;;;;;17.07;10.30;;;4.20;99.90;;;;;;5033200;28;20236;-89
2022/01/22 11:14:17;;;;;;;15.03;9.27;;;4.20;99.90;;;;;;5033216;28;20213;-90
2022/01/22 11:16:46;;;;;;;15.00;9.63;;;4.20;99.90;;;;;;5033378;28;20543;-89
2022/01/22 11:19:18;;;;;;;17.53;9.97;;;4.20;99.90;;;;;;5049752;28;20239;-89
2022/01/22 11:21:49;;;;;;;23.43;11.60;;;4.20;99.90;;;;;;5033230;28;20335;-89
2022/01/22 11:24:21;;;;;;;11.83;8.83;;;4.20;99.90;;;;;;5032938;28;20182;-89
2022/01/22 11:26:57;;;;;;;15.07;9.73;;;4.20;99.90;;;;;;5032894;28;20201;-89
2022/01/22 11:29:27;;;;;;;15.10;9.37;;;4.20;99.90;;;;;;5032677;28;20243;-89
2022/01/22 11:31:55;;;;;;;11.53;8.63;;;4.20;99.90;;;;;;5033054;28;20240;-89
2022/01/22 11:34:31;;;;;;;15.43;10.50;;;4.20;99.90;;;;;;5032945;28;20282;-90
2022/01/22 11:37:09;;;;;;;19.83;12.13;;;4.20;99.90;;;;;;5033261;28;20238;-89
2022/01/22 11:39:35;;;;;;;24.47;14.47;;;4.20;99.90;;;;;;5033274;28;20205;-89
2022/01/22 11:42:01;;;;;;;11.90;8.87;;;4.20;99.90;;;;;;5035232;28;20198;-89
2022/01/22 11:44:45;;;;;;;14.83;9.23;;;4.10;99.90;;;;;;5036917;28;20186;-89
2022/01/22 11:47:13;;;;;;;15.13;9.60;;;4.10;99.90;;;;;;5036733;28;20187;-89
2022/01/22 11:49:40;;;;;;;15.67;10.43;;;4.10;99.90;;;;;;5037003;28;20196;-89
2022/01/22 11:52:12;;;;;;;15.47;9.03;;;4.10;99.90;;;;;;5036821;28;20205;-90
2022/01/22 11:55:15;;;;;;;19.57;11.33;;;4.10;99.90;;;;;;5036811;28;20219;-89
2022/01/22 11:57:43;;;;;;;15.00;10.17;;;4.10;99.90;;;;;;5033402;28;20189;-89
2022/01/22 12:00:16;;;;;;;14.97;9.67;;;4.00;99.90;;;;;;5036954;28;20186;-89
2022/01/22 12:02:42;;;;;;;19.17;12.37;;;4.00;99.90;;;;;;5036752;28;20292;-89
2022/01/22 12:05:09;;;;;;;19.13;11.87;;;4.00;99.90;;;;;;5036654;28;20261;-89
2022/01/22 12:07:38;;;;;;;16.97;11.00;;;4.00;99.90;;;;;;5036582;28;20182;-89
2022/01/22 12:10:33;;;;;;;22.20;12.47;;;4.00;99.90;;;;;;5036631;28;20182;-89
2022/01/22 12:16:11;;;;;;;19.63;10.43;;;4.10;99.90;;;;;;5034871;28;20216;-89
2022/01/22 12:18:44;;;;;;;18.83;11.03;;;4.10;99.90;;;;;;5037719;28;20179;-89
2022/01/22 12:21:37;;;;;;;21.83;11.43;;;4.10;99.90;;;;;;5036315;28;20185;-89
2022/01/22 12:24:06;;;;;;;16.67;9.83;;;4.10;99.90;;;;;;5036217;28;20198;-89
2022/01/22 12:27:01;;;;;;;17.70;10.73;;;4.00;99.90;;;;;;5052503;28;20265;-89
2022/01/22 12:29:34;;;;;;;16.80;9.90;;;4.00;99.90;;;;;;5034875;28;20609;-89
2022/01/22 12:32:13;;;;;;;17.50;10.17;;;4.00;99.90;;;;;;5052550;28;20236;-89
2022/01/22 12:35:01;;;;;;;20.60;11.03;;;4.00;99.90;;;;;;5017336;28;20216;-89
2022/01/22 12:37:29;;;;;;;17.47;9.30;;;4.10;99.90;;;;;;5032820;28;20186;-88
2022/01/22 12:39:56;;;;;;;19.43;11.33;;;4.10;99.90;;;;;;5032938;28;20178;-89
2022/01/22 12:42:46;;;;;;;19.13;11.03;;;4.10;99.90;;;;;;5016353;28;20230;-89
2022/01/22 12:45:12;;;;;;;18.83;11.07;;;4.10;99.90;;;;;;5016438;28;20210;-89
2022/01/22 12:47:46;;;;;;;12.83;8.97;;;4.10;99.90;;;;;;5016223;28;20210;-89
2022/01/22 12:50:12;;;;;;;17.30;11.27;;;4.10;99.90;;;;;;5032865;28;20179;-89
2022/01/22 12:52:41;;;;;;;15.33;9.87;;;4.10;99.90;;;;;;5015493;28;20246;-89
2022/01/22 12:55:18;;;;;;;18.77;9.40;;;4.10;99.90;;;;;;5032322;28;20271;-89
2022/01/22 12:57:44;;;;;;;11.20;8.27;;;4.10;99.90;;;;;;5032244;28;20220;-89
2022/01/22 13:00:17;;;;;;;18.17;9.97;;;4.10;99.90;;;;;;5032604;28;20229;-89
2022/01/22 13:02:57;;;;;;;14.63;8.40;;;4.10;99.90;;;;;;5035608;28;20209;-89
2022/01/22 13:05:26;;;;;;;15.80;9.33;;;4.20;99.90;;;;;;5035604;28;20221;-89
2022/01/22 13:08:00;;;;;;;15.13;9.03;;;4.20;99.90;;;;;;5052189;28;20185;-90
2022/01/22 13:10:48;;;;;;;15.30;9.10;;;4.20;99.90;;;;;;5031652;28;20690;-89
2022/01/22 13:13:18;;;;;;;14.10;9.10;;;4.30;99.90;;;;;;5035746;28;20213;-89
2022/01/22 13:15:44;;;;;;;12.53;8.17;;;4.30;99.90;;;;;;5035745;28;20178;-89
2022/01/22 13:18:10;;;;;;;13.70;8.33;;;4.30;99.90;;;;;;5035822;28;20207;-89
2022/01/22 13:20:36;;;;;;;13.00;8.13;;;4.30;99.90;;;;;;5036044;28;20179;-89
2022/01/22 13:23:19;;;;;;;15.17;8.90;;;4.40;99.90;;;;;;5036235;28;20237;-89
2022/01/22 13:25:45;;;;;;;12.93;8.00;;;4.40;99.90;;;;;;5036565;28;20174;-89
2022/01/22 13:28:13;;;;;;;13.73;7.80;;;4.40;99.90;;;;;;5035167;28;20194;-89
2022/01/22 13:30:49;;;;;;;11.63;7.10;;;4.40;99.90;;;;;;5035490;28;20191;-89
2022/01/22 13:33:41;;;;;;;10.40;7.63;;;4.40;99.90;;;;;;5034604;28;20213;-89
2022/01/22 13:36:28;;;;;;;13.57;8.23;;;4.40;99.90;;;;;;5051376;28;20193;-89
2022/01/22 13:49:59;;;;;;;12.83;8.50;;;4.40;99.90;;;;;;5050942;28;20209;-89
2022/01/22 13:52:28;;;;;;;15.43;7.83;;;4.40;99.90;;;;;;5034562;28;20208;-89
2022/01/22 13:54:54;;;;;;;12.60;8.20;;;4.50;99.90;;;;;;5034673;28;20307;-89
2022/01/22 13:57:24;;;;;;;13.87;8.53;;;4.50;99.90;;;;;;5034420;28;20189;-89
2022/01/22 13:59:53;;;;;;;15.23;9.13;;;4.50;99.90;;;;;;5034424;28;20225;-89
2022/01/22 14:04:53;;;;;;;16.97;9.40;;;4.50;99.90;;;;;;5050017;28;20295;-89
2022/01/22 14:07:26;;;;;;;17.27;9.73;;;4.50;99.90;;;;;;5034218;28;20183;-88
2022/01/22 14:10:04;;;;;;;15.57;8.33;;;4.50;99.90;;;;;;5034515;28;20261;-88
2022/01/22 14:12:39;;;;;;;15.83;8.57;;;4.50;99.90;;;;;;5050612;28;20213;-89
2022/01/22 14:15:16;;;;;;;14.07;8.13;;;4.50;99.90;;;;;;5050503;28;20189;-89
2022/01/22 14:18:14;;;;;;;16.30;8.00;;;4.50;99.90;;;;;;5050369;28;20185;-89
2022/01/22 14:20:49;;;;;;;13.23;8.47;;;4.50;99.90;;;;;;5050984;28;20183;-90
2022/01/22 14:23:23;;;;;;;13.27;8.37;;;4.50;99.90;;;;;;5033830;28;20228;-89
2022/01/22 14:26:04;;;;;;;17.50;9.83;;;4.50;99.90;;;;;;5034008;28;20181;-89
2022/01/22 14:28:38;;;;;;;17.27;9.93;;;4.50;99.90;;;;;;5033662;28;20198;-89
2022/01/22 14:31:31;;;;;;;16.10;9.27;;;4.50;99.90;;;;;;5033994;28;20291;-89
2022/01/22 14:34:03;;;;;;;15.77;8.67;;;4.50;99.90;;;;;;5020622;28;20297;-89
2022/01/22 14:36:32;;;;;;;13.97;7.40;;;4.50;99.90;;;;;;5030549;28;20210;-89
2022/01/22 14:44:51;;;;;;;14.57;8.33;;;4.50;99.90;;;;;;5047114;28;20269;-89
2022/01/22 14:47:25;;;;;;;15.50;9.10;;;4.50;99.90;;;;;;5029865;28;20191;-89
2022/01/22 14:49:53;;;;;;;15.33;8.33;;;4.40;99.90;;;;;;5030325;28;20183;-89
2022/01/22 14:52:27;;;;;;;12.43;7.83;;;4.40;99.90;;;;;;5030051;28;20203;-89
2022/01/22 14:54:57;;;;;;;16.00;7.50;;;4.50;99.90;;;;;;5029920;28;20237;-89
2022/01/22 14:57:35;;;;;;;12.57;8.10;;;4.40;99.90;;;;;;5030091;28;20175;-89
2022/01/22 15:00:06;;;;;;;10.87;7.57;;;4.40;99.90;;;;;;5029943;28;20186;-89
2022/01/22 15:02:34;;;;;;;12.60;7.80;;;4.30;99.90;;;;;;5031578;28;20206;-89
2022/01/22 15:05:00;;;;;;;13.37;7.80;;;4.40;99.90;;;;;;5050085;28;20595;-89
2022/01/22 15:07:26;;;;;;;12.83;7.20;;;4.40;99.90;;;;;;5033231;28;20177;-89
2022/01/22 15:09:52;;;;;;;11.70;7.73;;;4.30;99.90;;;;;;5050106;28;20261;-89
2022/01/22 15:12:18;;;;;;;13.37;7.23;;;4.30;99.90;;;;;;5049725;28;20195;-90
2022/01/22 15:14:47;;;;;;;16.30;8.20;;;4.30;99.90;;;;;;5049654;28;20210;-89